Panagia — V2OQ5 — position and weather

sailwx.info

Track history (hours):
 
Tides and Currents Weather Stations Pressure Air Temp Water Temp Dewpoint Dewpoint Depression Visibility Wind Speed Wind Dir Waves Ship Positions

Panagia

Last reported at 2018-Apr-08 14:02 UTC. Time now 2018-Apr-25 18:11 UTC.
Position S 23°60' W 046°20'.
Warning: this ship's position is 17 days out of date.

Length 120 m; draft 6.9 m.

Type: Cargo ship. MMSI: 304610000.

Date/timePositionNaut miles runAvg speedWind from/ knotsBaromVisibWave heightAir tempDewpointWater temp
2018-Apr-08 14:02S 23°60' W 046°20'0 8.3
2018-Apr-08 14:00S 23°60' W 046°20'3 5.6
2018-Apr-08 13:30S 23°57' W 046°18'1 0.0
2018-Apr-07 01:39S 23°56' W 046°19'1 8.6
2018-Apr-07 01:30S 23°57' W 046°18'3 5.7
2018-Apr-07 00:59S 23°60' W 046°20'  
2018-Apr-01 08:12S 23°11' W 043°39'211.8
2018-Apr-01 08:00S 23°11' W 043°37'611.5
2018-Apr-01 07:29S 23°11' W 043°30'611.6
2018-Apr-01 07:00S 23°12' W 043°24'811.7
2018-Apr-01 06:18S 23°12' W 043°15'411.8
2018-Apr-01 06:00S 23°13' W 043°11'712.0
2018-Apr-01 05:23S 23°13' W 043°03'512.2
2018-Apr-01 04:58S 23°14' W 042°58'  
Track history (hours):
 
Tides and Currents Weather Stations Pressure Air Temp Water Temp Dewpoint Dewpoint Depression Visibility Wind Speed Wind Dir Waves Ship Positions

Panagia

Last reported at 2018-Apr-08 14:02 UTC. Time now 2018-Apr-25 18:11 UTC.
Position S 23°60' W 046°20'.
Warning: this ship's position is 17 days out of date.

Length 120 m; draft 6.9 m.

Type: Cargo ship. MMSI: 304610000.

Date/timePositionNaut miles runAvg speedWind from/ knotsBaromVisibWave heightAir tempDewpointWater temp
2018-Apr-08 14:02S 23°60' W 046°20'0 8.3
2018-Apr-08 14:00S 23°60' W 046°20'3 5.6
2018-Apr-08 13:30S 23°57' W 046°18'1 0.0
2018-Apr-07 01:39S 23°56' W 046°19'1 8.6
2018-Apr-07 01:30S 23°57' W 046°18'3 5.7
2018-Apr-07 00:59S 23°60' W 046°20'  
2018-Apr-01 08:12S 23°11' W 043°39'211.8
2018-Apr-01 08:00S 23°11' W 043°37'611.5
2018-Apr-01 07:29S 23°11' W 043°30'611.6
2018-Apr-01 07:00S 23°12' W 043°24'811.7
2018-Apr-01 06:18S 23°12' W 043°15'411.8
2018-Apr-01 06:00S 23°13' W 043°11'712.0
2018-Apr-01 05:23S 23°13' W 043°03'512.2
2018-Apr-01 04:58S 23°14' W 042°58'  

Dump ship's entire track history